Estações Meteorológicas Convencionais MB

Ilha Rasa
Data Hora VISIB (KM) Cobertura(OITAVOS) DD Vento(º) Intensidade (NÓS) TEMP DO AR (º) Temp do Ponto de Orvalho(ºC) Pressão (hPa) TEMP MAX (ºC) TEMP MIN (ºC)
30/05/2020 00:00 50 0 110 2 20.00 18.50 1021.30 25.00
29/05/2020 18:00 50 0 90 3 25.00 22.20 1020.10
28/05/2020 00:00 20/50 3 240 8 20.00 17.00 1021.70 22.00
27/05/2020 18:00 20/580 2 250 8 24.00 19.70 1018.20
27/05/2020 12:00 20/50 0 270 1 22.00 19.10 1016.60 18.00
27/05/2020 00:00 20/50 0 340 5 20.00 17.00 1016.60 19.00
26/05/2020 18:00 20/50 0 300 2 23.00 20.10 1013.30
26/05/2020 12:00 10/20 1 250 5 23.00 18.60 1014.70 19.00
25/05/2020 00:00 20/50 4 70 2 26.00 24.70 1007.40 28.00
23/05/2020 18:00 20/50 5 340 2 29.00 26.40 1005.90
23/05/2020 12:00 50 7 340 3 25.00 22.20 1014.10 23.00
22/05/2020 18:00 20/50 6 150 9 25.00 23.60 1022.00
22/05/2020 12:00 10/20 7 50 3 25.00 22.20 1020.20 23.00
20/05/2020 00:00 20/50 3 170 4 22.00 20.60 1023.80 21.00
19/05/2020 18:00 20/50 3 190 8 26.00 24.70 1021.60
19/05/2020 12:00 10/20 3 60 4 25.00 23.60 1024.20 22.00
18/05/2020 00:00 20/50 2 40 1 22.00 20.60 1020.20 25.00
17/05/2020 18:00 20/50 2 170 1 25.00 23.60 1017.70
17/05/2020 12:00 10/20 2 0 0 24.00 21.20 1018.40 20.00
16/05/2020 00:00 10/20 6 250 1 19.00 17.50 1023.30 19.00
15/05/2020 18:00 1/2 8 230 4 20.00 18.50 1014.50
15/05/2020 12:00 1/2 8 220 1 19.00 17.50 1004.20 19.00
15/05/2020 00:00 10/20 8 230 21.00 18.00 1017.70
14/05/2020 18:00 10/20 8 220 2 24.00 24.00 1012.70
14/05/2020 12:00 50 7 290 3 24.00 22.60 1013.60 22.00
11/05/2020 00:00 20/50 0 20 8 20.00 18.50 1021.60 27.00
10/05/2020 18:00 50 1 100 1 26.00 23.60 1014.00
10/05/2020 12:00 50 0 340 2 23.00 21.60 1023.30 17.00
10/05/2020 00:00 20/50 4 170 10 20.00 18.50 1025.10 26.00
09/05/2020 18:00 20/50 1 220 1 25.00 25.20 1024.10
09/05/2020 12:00 10/20 1 360 3 23.00 20.10 1023.00 18.00
06/05/2020 00:00 20/50 8 70 1 24.00 21.20 1011.50 27.00
05/05/2020 18:00 20/50 7 290 1 27.00 24.30 1009.00
03/05/2020 00:00 2/4 8 310 3 22.00 20.60 1016.10 28.00
02/05/2020 12:00 10/20 4 40 1 26.00 23.30 1015.40 22.00
01/05/2020 00:00 20/50 2 130 1 26.00 21.80 1012.80 31.00
30/04/2020 18:00 20/50 3 70 1 30.00 27.40 1010.50
30/04/2020 12:00 4/10 6 200 4 26.00 23.30 1017.20 23.00
30/04/2020 00:00 20/50 0 20 1 25.00 22.20 1008.50 25.00
29/04/2020 18:00 20/50 2 10 2 29.00 27.70 1014.30
29/04/2020 12:00 10/20 1 320 1 26.00 23.30 1021.10 23.00
27/04/2020 00:00 20/50 1 250 1 23.00 21.60 1018.30 29.00
26/04/2020 18:00 20/50 2 270 1 29.00 26.40 1015.20
26/04/2020 12:00 50 0 340 1 27.00 24.30 1018.20 20.00
26/04/2020 00:00 20/50 0 70 5 23.00 21.60 1011.50 23.00
25/04/2020 12:00 20/50 0 330 1 25.00 22.20 1019.30 22.00
23/04/2020 00:00 20/50 3 320 1 23.00 21.60 1014.30 28.00
22/04/2020 18:00 20/50 3 300 1 28.00 24.00 1013.30
22/04/2020 12:00 4/10 3 220 2 25.00 20.80 1017.80 21.00
21/04/2020 00:00 20/50 3 280 1 22.00 19.10 1017.80 26.00
20/04/2020 18:00 20/50 3 260 1 26.00 23.30 1016.10
20/04/2020 12:00 20/50 3 10 1 24.00 19.70 1019.30
19/04/2020 00:00 20/50 3 330 1 22.00 20.60 1021.80 26.00
18/04/2020 18:00 10/20 8 260 1 22.00 20.60 1020.00
18/04/2020 12:00 20/50 8 100 2 22.00 20.60 1022.60
17/04/2020 18:00 10/20 8 260 1 22.00 20.60 1021.20
17/04/2020 12:00 20/50 8 21 1 22.00 20.60 1020.50
15/04/2020 00:00 20/50 7 90 2 24.00 21.20 1006.30
14/04/2020 18:00 50 6 140 1 28.00 24.00 1006.30
14/04/2020 12:00 50 3 70 1 25.00 22.20 1014.60
14/04/2020 00:00 20/50 2 120 2 25.00 17.60 1015.80
13/04/2020 18:00 20/50 2 330 1 29.00 23.60 1014.80
13/04/2020 12:00 20/50 1 310 1 24.00 21.20 1018.20
11/04/2020 00:00 20/50 6 270 0 21.00 19.60 1018.30
10/04/2020 18:00 10/20 8 210 2 23.00 18.60 1016.20
07/04/2020 18:00 10/20 8 280 2 23.00 21.60 1004.00
07/04/2020 12:00 2/4 8 210 2 25.00 22.20 1014.00
07/04/2020 00:00 20/50 4 24.00 21.20 1008.30
06/04/2020 18:00 10/20 1 30 2 30.00 24.70 1008.40
06/04/2020 12:00 20/50 0 180 2 26.00 21.80 1012.10
06/04/2020 00:00 20/50 6 180 1 23.00 20.10 1014.30
05/04/2020 12:00 10/20 7 290 1 24.00 19.70 1017.40
02/04/2020 18:00 50 4 110 1 29.00 23.60 1005.80
02/04/2020 12:00 20/50 3 100 1 25.00 22.20 1016.20
02/04/2020 00:00 20/50 6 170 2 24.00 22.60 1014.10
01/04/2020 18:00 20/50 6 130 2 28.00 22.50 1011.80
01/04/2020 12:00 20/50 6 0 0 26.00 23.30 1017.10
30/03/2020 00:00 20/50 5 240 1 24.00 22.60 1007.00
29/03/2020 18:00 20/50 4 30.00 24.70 1012.00
29/03/2020 12:00 20/50 6 26.00 23.30 1018.00
29/03/2020 00:00 10/20 4 300 4 25.00 22.20 1012.80
28/03/2020 18:00 20/50 4 0 0 30.00 24.70 1012.00
28/03/2020 12:00 20/50 3 0 0 26.00 23.30 1019.00
25/03/2020 00:00 20/50 4 270 1 23.00 18.60 1016.30
24/03/2020 18:00 20/50 4 180 1 29.00 23.60 1015.40
24/03/2020 12:00 50 3 340 1 23.00 21.60 1019.30
24/03/2020 00:00 20/50 4 350 0 23.00 21.60 1017.60
23/03/2020 12:00 20/50 2 290 2 25.00 20.80 1020.30
20/03/2020 00:00 20/50 7 26.00 23.30 1008.00
19/03/2020 12:00 20/50 7 290 3 28.00 24.00 1003.00
19/03/2020 12:00 20/50 6 28.00 25.30 1002.30
19/03/2020 00:00 10/20 1 0 0 25.00 20.80 1006.80
18/03/2020 18:00 20/50 2 0 0 31.00 24.30 1006.80
18/03/2020 12:00 10/20 1 0 0 25.00 24.70 1016.70
16/03/2020 00:00 20/50 1 25.00 22.20 1005.80
15/03/2020 18:00 20/50 2 190 3 35.00 27.30 1007.30
15/03/2020 12:00 20/50 1 220 3 27.00 24.30 1016.70
15/03/2020 00:00 4/10 1 200 12 25.00 22.20 1011.80
14/03/2020 18:00 10/20 4 230 12 31.00 24.30 1010.80
14/03/2020 12:00 20/50 1 0 0 25.00 22.20 1013.90